Tiempo atmosférico en la estación meteorológica de Vigo Aeropuerto, Pontevedra (261 m.)



Fecha
DESCASC
Temp. máxima en grados centígrados (hora)
DESCASC
Temp. mínima en grados centígrados (hora)
DESCASC
Temp. media en grados centígrados
DESCASC
Racha de viento máxima en m/sg (hora)
DESCASC
Velocidad máxima media en intervalos de 10 minutos(hora)
DESCASC
Precipitaciones diarias en mm
DESCASC
Precipitaciones de 00:00 a 06:00 en mm
DESCASC
Precipitaciones de 06:00 a 12:00 en mm
DESCASC
Precipitaciones de 12:00 a 18:00 en mm
DESCASC
Precipitaciones de 18:00 a 24:00 en mm
DESCASC
16-04-2019 19.1 (18:00) 7.8 (08:50) 13.5 9.17 (15:20) 6.67 (15:40) -- 0 0 -- --
15-04-2019 15.3 (00:20) 9.1 (23:00) 12.2 12.78 (09:40) 8.06 (09:40) 14 0 4.8 9.2 0
14-04-2019 -- (--) -- (--) -- -- (--) -- (--) -- -- -- 1.1 0.2
13-04-2019 14.7 (13:50) 9.7 (00:00) 12.2 8.33 (13:50) 5.56 (14:20) 0.9 0 0 0.9 0
12-04-2019 17.2 (18:30) 6.4 (00:00) 11.8 11.39 (15:10) 5.83 (15:10) 0 0 0 0 0
11-04-2019 17.2 (14:30) 5.1 (00:00) 11.2 10.83 (17:00) 6.39 (18:20) 0 0 0 0 0
10-04-2019 14.5 (17:00) 8.9 (00:00) 11.7 13.89 (00:20) 6.39 (19:00) 6.8 6.8 0 0 0
09-04-2019 -- (--) -- (--) -- 13.33 (06:10) -- (--) 24.5 15.8 3.8 1.6 3.3
08-04-2019 13.7 (14:50) 6.9 (00:00) 10.3 12.78 (21:30) 8.61 (21:30) 7.6 4.3 1.1 0.2 2
07-04-2019 12.1 (22:40) 5.1 (00:00) 8.6 12.5 (17:50) 7.78 (22:50) 27.5 0.5 0 4.6 22.4
06-04-2019 11.2 (16:20) 5.3 (00:00) 8.3 15 (01:30) 6.94 (07:20) 32.5 6.7 6.5 5.2 14.1
05-04-2019 10.8 (17:20) 3.3 (00:00) 7.1 11.67 (13:50) 6.67 (12:00) 20.5 6.1 3.7 7.1 3.6
04-04-2019 9.5 (13:00) 3.3 (00:00) 6.4 12.5 (17:10) 7.78 (17:10) 20.6 0 0.1 3.1 17.4
03-04-2019 12.3 (15:10) 5.1 (08:20) 8.7 14.44 (15:40) 10 (15:40) 0.2 0 0 0.2 0
02-04-2019 16.9 (14:30) 6.4 (00:00) 11.6 11.67 (22:40) 7.5 (22:20) 0 0 0 0 0
01-04-2019 20.8 (13:50) 9.4 (00:00) 15.1 10.28 (16:00) 7.5 (15:50) 0 0 0 0 0
31-03-2019 22.6 (14:50) 9.1 (00:00) 15.9 10.28 (15:20) 7.22 (15:20) 0 0 0 0 0
30-03-2019 20.5 (13:30) 8.3 (00:00) 14.4 9.72 (16:00) 6.39 (16:00) 0 0 0 0 0
29-03-2019 -- (--) -- (--) -- -- (--) -- (--) -- 0 -- -- 0
28-03-2019 23.6 (15:10) 8 (00:00) 15.8 11.67 (17:50) 6.67 (18:10) 0 0 0 0 0
27-03-2019 -- (--) -- (--) -- -- (--) -- (--) -- 0 -- 0 0
26-03-2019 23.5 (16:50) 9.8 (00:00) 16.7 14.44 (11:50) 7.5 (10:40) -- 0 0 -- 0
25-03-2019 23.2 (15:40) 8.6 (00:00) 15.9 11.39 (21:50) 7.5 (03:50) 0 0 0 0 0
24-03-2019 25 (14:20) 9.2 (00:00) 17.1 12.5 (17:50) 6.39 (20:40) 0 0 0 0 0
23-03-2019 22.1 (14:40) 7.5 (00:00) 14.8 8.89 (16:40) 6.11 (16:20) 0 0 0 0 0
22-03-2019 19.3 (13:50) 6.7 (00:00) 13 10.83 (17:00) 5.56 (16:50) 0 0 0 0 0
21-03-2019 18.4 (14:30) 7.2 (00:00) 12.8 9.17 (18:50) 6.67 (19:00) 0 0 0 0 0
20-03-2019 17.8 (13:20) 5.7 (00:00) 11.7 11.39 (17:50) 6.39 (15:10) 0 0 0 0 0
19-03-2019 17 (15:20) 5 (00:00) 11 11.67 (00:10) 8.06 (17:10) 0 0 0 0 0

Gráficas

Temp. máximas Temp. mínimas Temp. medias Precipitaciones Rachas de viento máximas Velocidades máximas media en intervalos de 10 minutos

Datos horarios

Fecha y hora oficial Temperatura (ºC) Velocidad del viento (km/h) Dirección del viento Racha (km/h) Dirección de racha Precipitación (mm) Presión (hPa) Tendencia (hPa) Humedad (%)
2019-04-17 23:00:00 11.2 11 Sur 18 Sur 0.1 978.1 1.4 100
2019-04-17 22:00:00 11.6 10 Sur 18 Sur 1.2 977.5 1.1 100
2019-04-17 21:00:00 11.8 10 Sur 18 Sur 0 976.9 0.6 100
2019-04-17 20:00:00 11.6 13 Sur 21 Sur 0.1 976.7 0.7 100
2019-04-17 19:00:00 11.7 10 Sur 24 Sur 1.1 976.4 0.3 100
2019-04-17 18:00:00 11.9 13 Sur 21 Sur 0.9 976.3 0.2 100
2019-04-17 17:00:00 12.4 20 Sur 28 Sur 1.1 976 -0.1 100
2019-04-17 16:00:00 13 16 Sur 24 Sur 0.4 976.1 -0.1 98
2019-04-17 15:00:00 12.6 15 Sur 32 Sur 0.7 976.1 0.1 94
2019-04-17 14:00:00 13 17 Sur 39 Sur 0.4 976.1 0.1 82
2019-04-17 13:00:00 13.3 19 Sur 41 Sudeste 0.3 976.2 0.1 71
2019-04-17 12:00:00 14.1 13 Sudeste -- -- -- 976 -0.2 60
2019-04-17 11:00:00 13.5 14 Sur 28 Sur 0 976 -0.2 63
2019-04-17 10:00:00 12.4 14 Sur 28 Sur 0 976.1 0.1 72
2019-04-17 09:00:00 12.3 18 Sur 37 Sudeste 0 976.2 0.1 68
2019-04-17 08:00:00 12 20 Sur 30 Sur 0 976.2 -0.1 66
2019-04-17 07:00:00 11.4 9 Sudoeste 17 Sudoeste 0 976 -1 69
2019-04-17 06:00:00 10.8 9 Sudoeste 13 Sudoeste 0 976.1 -1.2 75
2019-04-17 05:00:00 10.9 10 Sudoeste 17 Sudoeste 0 976.3 -1.4 75
2019-04-17 04:00:00 10.5 14 Sudoeste 18 Sur 0 977 -1.5 84
2019-04-17 03:00:00 11.4 12 Sur 15 Sur 0 977.3 -2.4 77
2019-04-17 02:00:00 10.9 8 Sudoeste 11 Sudoeste 0 977.7 -2.7 77
2019-04-17 01:00:00 11.9 7 Norte 13 Norte 0 978.5 -2.4 71
2019-04-17 00:00:00 12.2 10 Norte 13 Norte 0 979.7 -1.1 71
2019-04-16 23:00:00 12.4 6 Norte 13 Norte 0 980.4 -0.5 65
2019-04-16 22:00:00 12.8 8 Noroeste 13 Oeste 0 980.9 -0.6 63
2019-04-16 21:00:00 13.5 9 Noroeste 18 Noroeste 0 980.8 -1.3 58
2019-04-16 20:00:00 14.2 11 Norte 18 Norte 0 980.9 -1.9 65
2019-04-16 19:00:00 17.3 8 Sudoeste -- -- -- 981.5 -2.1 49
2019-04-16 18:00:00 19 21 Sur 30 Sur 0 982.1 -2.4 38
2019-04-16 17:00:00 18.5 16 Sur 33 Sudoeste 0 982.8 -2.2 42
2019-04-16 16:00:00 18 20 Sur 33 Sur 0 983.6 -2.2 44
2019-04-16 15:00:00 17.3 18 Sudoeste 30 Sur 0 984.5 -1.7 47
2019-04-16 14:00:00 15.9 15 Sur -- -- -- 985 -1.5 55
2019-04-16 13:00:00 14.1 16 Sur 24 Sudoeste 0 985.8 -0.8 61
2019-04-16 12:00:00 12.7 15 Sur 22 Sur 0 986.2 -0.3 71
2019-04-16 11:00:00 10.7 12 Sudoeste 17 Sudoeste 0 986.5 -0.1 82
2019-04-16 10:00:00 9.8 12 Sudoeste 21 Sur 0 986.6 0 83
2019-04-16 09:00:00 8 17 Sur 21 Sur 0 986.5 -0.5 97
2019-04-16 08:00:00 8 15 Sur 21 Sur 0 986.6 -0.6 99
2019-04-16 07:00:00 8.8 13 Sur 22 Sur 0 986.6 -0.8 91
2019-04-16 06:00:00 8.6 12 Sur 17 Sur 0 987 -0.7 95
2019-04-16 05:00:00 8.6 12 Sur 21 Sur 0 987.2 -1 96
2019-04-16 04:00:00 8.7 14 Sur 22 Sur 0 987.4 -0.7 98
2019-04-16 03:00:00 9.2 13 Sur 18 Sur 0 987.7 -0.2 97
2019-04-16 02:00:00 9.5 12 Sur 17 Sur 0 988.2 0.5 92
2019-04-16 01:00:00 9.4 13 Sur 17 Sur 0 988.1 0.9 95
2019-04-16 00:00:00 9.8 13 Sur 17 Sur 0 987.9 1.6 95
2019-04-15 23:00:00 9.1 6 Sudoeste 9 Sudoeste 0 987.7 2.2 97
2019-04-15 22:00:00 10.6 7 Sudoeste 17 Oeste 0 987.2 1.8 87
2019-04-15 21:00:00 11.7 12 Sudoeste 24 Oeste 0 986.3 1.6 79
2019-04-15 20:00:00 12.8 12 Sudoeste 24 Sudoeste 0 985.5 1.6 75
2019-04-15 19:00:00 13.2 12 Sudoeste 28 Oeste 0 985.4 2.1 67
2019-04-15 18:00:00 13.4 17 Oeste 33 Oeste 0 984.7 2.1 68
2019-04-15 17:00:00 13.4 19 Oeste 33 Sudoeste 0 983.9 1.7 74
2019-04-15 16:00:00 12.9 19 Oeste 37 Sudoeste 0 983.3 1.4 77
2019-04-15 15:00:00 12.2 19 Oeste 37 Sudoeste 0 982.6 1.4 84
2019-04-15 14:00:00 11.7 25 Sudoeste 37 Oeste 0.3 982.2 1.8 97
2019-04-15 13:00:00 10.7 15 Sudoeste 26 Sudoeste 8.9 981.9 2.3 100
2019-04-15 12:00:00 11 13 Sur 22 Sur 3.4 981.2 2.2 100
2019-04-15 11:00:00 11.6 11 Sudoeste 32 Sudoeste 0.5 980.4 1.2 98
2019-04-15 10:00:00 12.2 20 Sudoeste 46 Sudoeste 0.8 979.6 0.6 91
2019-04-15 09:00:00 13.4 19 Sur 37 Sur 0.1 979 -0.1 100
2019-04-15 08:00:00 13.6 23 Sur 35 Sur 0 979.2 0 100
2019-04-15 07:00:00 13.6 24 Sur 37 Sudoeste 0 979 -1.1 100
2019-04-15 06:00:00 13.9 25 Sur 37 Sur 0 979.1 -1.8 100
2019-04-15 05:00:00 14.3 19 Sur 35 Sur 0 979.2 -2.5 100
2019-04-15 04:00:00 14.7 26 Sur 35 Sudoeste 0 980.1 -2.3 100
2019-04-15 03:00:00 14.9 20 Sur 32 Sur 0 980.9 -1.9 100
2019-04-15 02:00:00 15 16 Sur 28 Sur 0 981.7 -1.7 100
2019-04-15 01:00:00 15.2 14 Sur 26 Sur 0 982.4 -1.1 100
2019-04-15 00:00:00 15.2 13 Sur 21 Sur 0 982.8 -0.8 100
2019-04-14 23:00:00 15.3 11 Sur 17 Sur 0 983.4 -0.3 100
2019-04-14 22:00:00 15.4 11 Sur 15 Sur 0 983.5 -0.4 100
2019-04-14 21:00:00 15.7 13 Sur 21 Sur 0 983.6 -1.2 100
2019-04-14 20:00:00 16.1 12 Sur 22 Sur 0 983.7 -1.6 100
2019-04-14 19:00:00 16.1 11 Sur 24 Sur 0.2 983.9 -2.2 100
2019-04-14 18:00:00 15.9 14 Sur 28 Sur 0.7 984.8 -1.4 100
2019-04-14 17:00:00 16.8 19 Sur 30 Sur 0.4 985.3 -1 100
2019-04-14 16:00:00 17.2 14 Sur 28 Sur 0 986.1 -0.6 92
2019-04-14 15:00:00 18.1 17 Sur 32 Sur 0 986.2 -0.5 85
2019-04-14 14:00:00 19.2 13 Sur 24 Sur 0 986.3 -- 79
2019-04-14 13:00:00 18 14 Sur 22 Sur 0 986.7 -- 85
2019-04-14 12:00:00 15.9 10 Sur -- -- -- 986.7 -- 94
2019-04-14 11:00:00 -- -- -- -- -- -- -- -- --
2019-04-14 10:00:00 -- -- -- -- -- -- -- -- --
2019-04-14 09:00:00 -- -- -- -- -- -- -- -- --
2019-04-14 08:00:00 -- -- -- -- -- -- -- -- --
2019-04-14 07:00:00 -- -- -- -- -- -- -- -- --
2019-04-14 06:00:00 -- -- -- -- -- -- -- -- --
2019-04-14 05:00:00 -- -- -- -- -- -- -- -- --
2019-04-14 04:00:00 -- -- -- -- -- -- -- -- --
2019-04-14 03:00:00 -- -- -- -- -- -- -- -- --
2019-04-14 02:00:00 -- -- -- -- -- -- -- -- --
2019-04-14 01:00:00 12.8 11 Sur 21 Sur 0 988.6 -0.1 100
2019-04-14 00:00:00 12.8 9 Sur 21 Sur 0 989 0.6 100
2019-04-13 23:00:00 12.8 12 Sur 21 Sur 0 989.2 1 100
2019-04-13 22:00:00 12.7 9 Sur 17 Sur 0 988.7 0.5 100
2019-04-13 21:00:00 12.6 13 Sur 24 Sur 0 988.4 0.4 100
2019-04-13 20:00:00 12.6 10 Sur 21 Sur 0 988.2 -0.1 100
2019-04-13 19:00:00 12.5 12 Sur 21 Sur 0 988.2 -0.5 100
2019-04-13 18:00:00 12.6 11 Sur 21 Sur 0 988 -0.7 100
2019-04-13 17:00:00 12.3 13 Sur 21 Sur 0.8 988.3 -0.3 100
2019-04-13 16:00:00 11.7 10 Sur 24 Sur 0 988.7 0.1 100
2019-04-13 15:00:00 12.2 14 Sur 30 Sur 0.1 988.7 0.2 86
2019-04-13 14:00:00 14.4 19 Sur 30 Sur 0 988.6 0.2 61
2019-04-13 13:00:00 14.3 11 Sur 22 Sur 0 988.6 0.4 61
2019-04-13 12:00:00 13.8 14 Sur 22 Sur 0 988.5 0.3 59
2019-04-13 11:00:00 12.8 12 Sur 22 Sur 0 988.4 0.3 74
2019-04-13 10:00:00 11.5 14 Sur 21 Sur 0 988.2 0.4 80
2019-04-13 09:00:00 10.4 15 Sur 24 Sur 0 988.2 0.3 89
2019-04-13 08:00:00 10.5 16 Sur 22 Sur 0 988.1 0 86
2019-04-13 07:00:00 10 12 Sur 18 Sur 0 987.8 -0.8 93
2019-04-13 06:00:00 9.9 15 Sur 18 Sur 0 987.9 -1 92
2019-04-13 05:00:00 10.4 10 Sur 15 Sur 0 988.1 -1 92
2019-04-13 04:00:00 10.5 9 Sudoeste 13 Sudoeste 0 988.6 -0.4 84
2019-04-13 03:00:00 10.6 0 Calma 11 Sudoeste 0 988.9 -0.5 79
2019-04-13 02:00:00 10.4 9 Oeste 11 Oeste 0 989.1 0 78
2019-04-13 01:00:00 10.3 0 Calma 5 Noroeste 0 989 0.2 76
2019-04-13 00:00:00 10.4 5 Noroeste 9 Noroeste 0 989.4 1 74
2019-04-12 23:00:00 11 5 Norte 17 Sudoeste 0 989.1 0.9 72
2019-04-12 22:00:00 11.8 3 Oeste 22 Sudoeste 0 988.8 0.7 72
2019-04-12 21:00:00 12.7 16 Oeste 26 Oeste 0 988.4 0 70
2019-04-12 20:00:00 15.1 18 Oeste 30 Sudoeste 0 988.2 -0.5 52
2019-04-12 19:00:00 16.4 13 Oeste 24 Oeste 0 988.1 -1.3 47
2019-04-12 18:00:00 16.4 16 Oeste 30 Oeste 0 988.4 -1.3 43
2019-04-12 17:00:00 16.8 17 Oeste 30 Oeste 0 988.7 -1.2 47
2019-04-12 16:00:00 16.1 20 Oeste 41 Sudoeste 0 989.4 -0.8 52
2019-04-12 15:00:00 16.3 20 Sudoeste 30 Sudoeste 0 989.7 -0.4 57
2019-04-12 14:00:00 16.6 9 Sudoeste 17 Oeste 0 989.9 0.1 51
2019-04-12 13:00:00 15.5 12 Sudoeste 24 Sur 0 990.2 0.4 61
2019-04-12 12:00:00 13.6 11 Sur 18 Sur 0 990.1 0.3 66
2019-04-12 11:00:00 11.1 10 Sur 21 Sudoeste 0 989.8 0.2 76
2019-04-12 10:00:00 9.1 13 Sur 21 Sur 0 989.8 0.1 84
2019-04-12 09:00:00 7.2 10 Sudoeste 15 Sur 0 989.8 0.2 95
2019-04-12 08:00:00 6.6 10 Sudoeste 13 Sudoeste 0 989.6 0 98
2019-04-12 07:00:00 6.9 11 Sudoeste 15 Sudoeste 0 989.7 0 97
2019-04-12 06:00:00 7.6 7 Sudoeste 11 Sudoeste 0 989.6 -0.7 91
2019-04-12 05:00:00 7.9 6 Sudoeste 11 Sudoeste 0 989.6 -0.7 89
2019-04-12 04:00:00 7.8 0 Calma 11 Sudoeste 0 989.7 -0.8 88
2019-04-12 03:00:00 8.6 9 Sudoeste 15 Sudoeste 0 990.3 -0.2 86
2019-04-12 02:00:00 8.7 6 Sudoeste 11 Sudoeste 0 990.3 -0.3 85
2019-04-12 01:00:00 9.5 8 Norte 11 Norte 0 990.5 0 82
2019-04-12 00:00:00 9.7 6 Noroeste 13 Oeste 0 990.5 0.2 80
2019-04-11 23:00:00 9.3 4 Norte 13 Oeste 0 990.6 0.3 82
2019-04-11 22:00:00 10.5 5 Oeste 22 Oeste 0 990.5 0.3 76
2019-04-11 21:00:00 11.7 14 Oeste 26 Oeste 0 990.3 -0.1 69
2019-04-11 20:00:00 13.1 17 Oeste 30 Oeste 0 990.3 0 61
2019-04-11 19:00:00 13.9 23 Oeste 32 Oeste 0 990.2 -0.2 64
2019-04-11 18:00:00 14.5 23 Oeste 35 Oeste 0 990.4 -0.3 64
2019-04-11 17:00:00 15.3 22 Oeste 39 Oeste 0 990.3 -0.9 61
2019-04-11 16:00:00 15.8 9 Noroeste 26 Norte 0 990.4 -1.3 53
2019-04-11 15:00:00 15.1 3 Noroeste 21 Sudeste 0 990.7 -1.1 56
2019-04-11 14:00:00 16.2 5 Sudeste 18 Este 0 991.2 -0.3 48
2019-04-11 13:00:00 14.6 5 Sur 13 Sur 0 991.7 0.4 56
2019-04-11 12:00:00 12.5 6 Sur 15 Sur 0 991.8 0.7 68
2019-04-11 11:00:00 10.3 8 Sur 13 Sur 0 991.5 0.8 86
2019-04-11 10:00:00 8.3 9 Sur 13 Sur 0 991.3 0.6 95
2019-04-11 09:00:00 6.7 4 Sur 13 Sudoeste 0 991.1 0.4 100
2019-04-11 08:00:00 5.6 0 Calma 8 Noroeste 0 990.7 -0.1 100
2019-04-11 07:00:00 5.4 0 Calma 5 Noroeste 0 990.7 0 100
2019-04-11 06:00:00 5.8 4 Norte 8 Noroeste 0 990.7 -0.2 100
2019-04-11 05:00:00 5.9 4 Norte 8 Noroeste 0 990.8 -0.2 100
2019-04-11 04:00:00 6.7 5 Norte 9 Norte 0 990.7 -0.2 99
2019-04-11 03:00:00 7.3 9 Norte 11 Norte 0 990.9 0.1 91
2019-04-11 02:00:00 7.1 4 Norte 11 Norte 0 991 0.3 99
2019-04-11 01:00:00 8.3 5 Nordeste 21 Norte 0 990.9 0.8 94
2019-04-11 00:00:00 9.6 11 Norte 21 Norte 0 990.8 1.4 85
2019-04-10 23:00:00 10.4 6 Norte 18 Noroeste 0 990.7 1.7 81
2019-04-10 22:00:00 11.3 8 Noroeste 22 Oeste 0 990.1 1.3 82
2019-04-10 21:00:00 11.7 15 Oeste 28 Oeste 0 989.4 0.8 86
2019-04-10 20:00:00 12.1 19 Oeste 33 Oeste 0 989 0.6 83
2019-04-10 19:00:00 13.2 23 Oeste 33 Oeste 0 988.8 0.1 75
2019-04-10 18:00:00 13.5 22 Oeste 33 Oeste 0 988.6 0 74
2019-04-10 17:00:00 14 18 Oeste 32 Oeste 0 988.4 -0.2 73
2019-04-10 16:00:00 13.2 15 Oeste 32 Oeste 0 988.7 -0.1 76
2019-04-10 15:00:00 12.1 13 Noroeste 28 Oeste 0 988.6 0.3 88
2019-04-10 14:00:00 12.8 14 Noroeste 30 Noroeste 0 988.6 0.3 76
2019-04-10 13:00:00 12.2 9 Norte 28 Noroeste 0 988.8 1 77
2019-04-10 12:00:00 11.6 14 Oeste 24 Oeste 0 988.3 0.9 75
2019-04-10 11:00:00 11.5 6 Nordeste 17 Nordeste 0 988.3 1.8 84
2019-04-10 10:00:00 11.4 4 Nordeste 13 Nordeste 0 987.8 1.7 81
2019-04-10 09:00:00 9.5 5 Norte 21 Noroeste 0 987.4 1.4 96
2019-04-10 08:00:00 9.4 17 Noroeste 35 Oeste 0 986.5 0.6 89
2019-04-10 07:00:00 9.8 16 Noroeste 30 Noroeste 0 986.1 0.5 93
2019-04-10 06:00:00 9.8 14 Noroeste 26 Norte 0 986 0.2 95
2019-04-10 05:00:00 9.8 12 Noroeste 24 Oeste 0.9 985.9 0 99
2019-04-10 04:00:00 9.8 12 Oeste 28 Oeste 0.1 985.6 -0.2 98
2019-04-10 03:00:00 9.3 16 Noroeste 35 Noroeste 0.7 985.8 0.3 99
2019-04-10 02:00:00 9.2 14 Norte 33 Oeste 1.4 985.9 0.6 100
2019-04-10 01:00:00 9.2 20 Oeste 50 Oeste 3.7 985.8 1 100
2019-04-10 00:00:00 9.9 15 Oeste 33 Oeste 0.4 985.5 1.3 94
2019-04-09 23:00:00 10.1 13 Oeste 33 Oeste 0.6 985.3 1.5 88
2019-04-09 22:00:00 10.4 14 Oeste 37 Oeste 0 984.8 1.8 88
2019-04-09 21:00:00 10.4 23 Oeste 46 Oeste 0 984.2 -- 87
2019-04-09 20:00:00 10.6 22 Oeste 42 Oeste 0.1 983.8 0.9 85
2019-04-09 19:00:00 10 14 Oeste 33 Oeste 2.2 983 -0.1 98
2019-04-09 18:00:00 -- -- -- 39 Oeste 0.6 -- -- --
2019-04-09 17:00:00 11 18 Oeste -- -- -- 982.9 -0.1 90
2019-04-09 16:00:00 10.1 17 Sudoeste 46 Oeste 0.3 983.1 -0.2 93
2019-04-09 15:00:00 11.9 23 Oeste 46 Oeste 0 982.8 -0.4 73
2019-04-09 14:00:00 11.8 27 Sudoeste 42 Sudoeste 0 983 0.7 75
2019-04-09 13:00:00 9.7 9 Sudoeste 22 Sudoeste 0.6 983.3 1.3 94
2019-04-09 12:00:00 8.2 10 Noroeste 35 Noroeste 2.4 983.2 1.6 100
2019-04-09 11:00:00 9.2 6 Sur 39 Oeste 0.1 982.3 1.6 85
2019-04-09 10:00:00 9.6 2 Oeste 21 Oeste 0.9 982 2.4 92
2019-04-09 09:00:00 8.5 0 Calma 17 Oeste 0 981.6 2.4 87
2019-04-09 08:00:00 8.4 7 Noroeste 18 Noroeste 0 980.7 1.4 93
2019-04-09 07:00:00 8.3 8 Noroeste 48 Sudoeste 0.4 979.6 0.1 94
2019-04-09 06:00:00 8.9 13 Oeste 30 Sudoeste 3.1 979.2 -0.7 99
2019-04-09 05:00:00 8.3 9 Sur 26 Sudoeste 6.3 979.3 -0.6 100
2019-04-09 04:00:00 8 3 Sudeste 22 Sur 3.4 979.5 -0.8 100
2019-04-09 03:00:00 7.8 15 Sur 32 Sur 0.4 979.9 -0.7 100
2019-04-09 02:00:00 8 5 Sur 32 Sur 2.4 979.9 -1 100
2019-04-09 01:00:00 8.3 15 Sur 32 Sudoeste 0.2 980.3 -0.3 100
2019-04-09 00:00:00 8.3 18 Sur 30 Sur 0 980.6 0.3 100
2019-04-08 23:00:00 8.3 10 Sur 37 Sudoeste 0.7 980.9 0.1 100
2019-04-08 22:00:00 8.6 13 Sur 46 Sur 1.2 980.6 -0.5 97
2019-04-08 21:00:00 10.9 24 Sur 35 Sur 0 980.3 -1.1 79
2019-04-08 20:00:00 11.1 23 Sur 45 Sur 0 980.8 -0.6 77
2019-04-08 19:00:00 12.4 28 Sur 45 Sur 0.1 981.1 -0.8 73
2019-04-08 18:00:00 10.9 21 Sur 42 Sur 0.1 981.4 -0.7 78
2019-04-08 17:00:00 13 26 Sudoeste 45 Sudoeste 0 981.4 -0.9 62
2019-04-08 16:00:00 12.9 30 Sudoeste 42 Sudoeste 0 981.9 -0.4 59
2019-04-08 15:00:00 13 21 Sudoeste 45 Sudoeste 0 982.1 -0.3 61
2019-04-08 14:00:00 12.3 29 Sudoeste 42 Sudoeste 0 982.3 0 63
2019-04-08 13:00:00 13.1 27 Sudoeste 42 Sudoeste 0.1 982.3 0.2 61
2019-04-08 12:00:00 11.9 17 Sudoeste 32 Sudoeste 0 982.4 0.5 68
2019-04-08 11:00:00 10.9 13 Sur 24 Sudeste 0 982.3 0.8 90
2019-04-08 10:00:00 8.8 16 Sur 32 Sur 0.2 982.1 0.9 96
2019-04-08 09:00:00 7.7 5 Sudoeste 9 Sur 0.1 981.9 1 100
2019-04-08 08:00:00 7.1 6 Sur 13 Sudoeste 0 981.5 0.5 100
2019-04-08 07:00:00 7.7 12 Sudoeste 30 Oeste 0.8 981.2 0.7 94
2019-04-08 06:00:00 8.6 8 Sur 13 Sudoeste 0 980.9 0.7 100
2019-04-08 05:00:00 9.3 8 Sudoeste 21 Sudoeste 0 981 1.5 100
2019-04-08 04:00:00 10.1 14 Sudoeste 22 Sudoeste 0 980.5 1.5 100
2019-04-08 03:00:00 10.2 8 Oeste 32 Oeste 0 980.2 1.4 100
2019-04-08 02:00:00 10.6 18 Oeste 37 Oeste 4 979.5 1.6 100
2019-04-08 01:00:00 10.8 11 Sudoeste 28 Oeste 0.3 979 2.1 100
2019-04-08 00:00:00 10.9 12 Oeste 45 Sudoeste 0.1 978.8 1.9 100
2019-04-07 23:00:00 11.4 24 Sudoeste 45 Sudoeste 1.1 977.9 0.9 100
2019-04-07 22:00:00 11.5 19 Sur 30 Sur 1.6 976.9 -0.1 100
2019-04-07 21:00:00 11.8 21 Sudoeste 41 Sudoeste 5.7 976.9 0.2 100
2019-04-07 20:00:00 12 24 Sudoeste 45 Sudoeste 6.9 977 -0.3 100
2019-04-07 19:00:00 9.8 10 Sur 42 Sur 7 977 -0.6 100
2019-04-07 18:00:00 9.3 26 Sur 45 Sur 0.8 976.7 -1.5 100
2019-04-07 17:00:00 9.1 19 Sur 35 Sur 1.4 977.3 -1.7 100
2019-04-07 16:00:00 9.3 19 Sur 37 Sur 0.9 977.6 -1.8 100
2019-04-07 15:00:00 9.1 17 Sudeste 28 Sudeste 0.9 978.2 -1.3 99
2019-04-07 14:00:00 9 9 Sudeste 24 Sur 0.6 979 -0.4 100
2019-04-07 13:00:00 9.3 14 Sur 22 Sur 0 979.4 0.3 94
2019-04-07 12:00:00 8.1 13 Sur 21 Sur 0 979.5 0.5 97
2019-04-07 11:00:00 7.4 13 Sur 18 Sur 0 979.4 0.8 100
2019-04-07 10:00:00 6.6 15 Sur 18 Sur 0 979.1 0.8 100
2019-04-07 09:00:00 6.1 15 Sur 18 Sur 0 979 0.7 100
2019-04-07 08:00:00 5.8 12 Sudoeste 17 Sur 0 978.6 0.6 100
2019-04-07 07:00:00 5.9 9 Sudoeste 15 Sur 0 978.3 0.6 100
2019-04-07 06:00:00 5.5 10 Sudoeste 15 Sur 0 978.3 0.6 100
2019-04-07 05:00:00 6.1 10 Sudoeste 13 Sudoeste 0 978 0.7 100
2019-04-07 04:00:00 5.6 7 Sudoeste 9 Sudoeste 0 977.7 0.8 100
2019-04-07 03:00:00 5.6 4 Norte 13 Nordeste 0 977.7 1.1 100
2019-04-07 02:00:00 5.8 5 Sudoeste 11 Sudoeste 0 977.3 1.2 100
2019-04-07 01:00:00 6.5 8 Noroeste 26 Oeste 0.5 976.9 1.4 98
2019-04-07 00:00:00 7.7 8 Oeste 18 Oeste 0.8 976.6 1.4 89
2019-04-06 23:00:00 6.9 7 Oeste 26 Oeste 0.7 976.1 0.5 100
2019-04-06 22:00:00 7.7 9 Oeste 18 Oeste 0.9 975.5 1 90
2019-04-06 21:00:00 6.1 3 Sudeste 24 Oeste 1.7 975.2 1.5 100
2019-04-06 20:00:00 6.2 9 Noroeste 39 Oeste 2.7 975.6 2 97
2019-04-06 19:00:00 6.5 19 Noroeste 41 Oeste 7.3 974.5 1 87
2019-04-06 18:00:00 9 18 Oeste 39 Oeste 2.7 973.7 0.9 78
2019-04-06 17:00:00 10 12 Noroeste 39 Oeste 0 973.6 1.1 69
2019-04-06 16:00:00 10 18 Oeste 33 Noroeste 0 973.5 1.5 69
2019-04-06 15:00:00 10.7 18 Noroeste 41 Oeste 0 972.8 1.7 72
2019-04-06 14:00:00 6.7 20 Noroeste 50 Noroeste 2 972.5 2.8 92
2019-04-06 13:00:00 7.3 14 Oeste 46 Noroeste 0.5 972 3.2 81
2019-04-06 12:00:00 6.7 16 Noroeste 54 Oeste 2.7 971.1 3.1 94
2019-04-06 11:00:00 7.8 18 Oeste 33 Oeste 0.4 969.7 2.9 93
2019-04-06 10:00:00 8 21 Oeste 52 Oeste 1.1 968.8 1.9 81
2019-04-06 09:00:00 7.5 16 Oeste 46 Oeste 0.7 968 0.5 89
2019-04-06 08:00:00 8 12 Oeste 50 Oeste 0 966.8 -1.9 80
2019-04-06 07:00:00 6.8 17 Oeste 41 Oeste 1.6 966.9 -2.2 92
2019-04-06 06:00:00 6.2 17 Sudoeste 30 Sur 2.2 967.5 -2.3 98
2019-04-06 05:00:00 7 18 Oeste 46 Oeste 0 968.7 -1.9 87
2019-04-06 04:00:00 6.5 15 Sur 46 Sudoeste 0.1 969.1 -1.9 93
2019-04-06 03:00:00 5.9 8 Sur 37 Sur 1 969.8 -1.6 100
2019-04-06 02:00:00 6 17 Sudoeste 54 Oeste 3.4 970.6 -0.4 100
2019-04-06 01:00:00 6 14 Sur 24 Sur 0 971 0.2 100
2019-04-06 00:00:00 5.5 4 Sudeste 33 Noroeste 2.7 971.4 0.8 98
2019-04-05 23:00:00 6.6 11 Sur 15 Sur 0 971 0.9 98
2019-04-05 22:00:00 6.6 7 Sur 11 Sur 0.1 970.8 1 99
2019-04-05 21:00:00 7.1 6 Sur 13 Sur 0 970.6 1.6 96
2019-04-05 20:00:00 7.5 5 Sur 22 Oeste 0.1 970.1 1.5 94
2019-04-05 19:00:00 7.5 13 Oeste 32 Noroeste 0.7 969.8 1.2 87
2019-04-05 18:00:00 8.2 17 Oeste 39 Oeste 0.2 969 0.3 76
2019-04-05 17:00:00 9.4 10 Oeste 22 Noroeste 0 968.6 0.3 71
2019-04-05 16:00:00 7.5 4 Sur 17 Sur 0.3 968.6 0.4 99
2019-04-05 15:00:00 6.4 6 Sur 24 Sur 3.6 968.7 0.5 99
2019-04-05 14:00:00 5 9 Sur 42 Sudoeste 2.2 968.3 0.6 97
2019-04-05 13:00:00 7 15 Sur 33 Sur 0.8 968.2 1 98
2019-04-05 12:00:00 6.3 24 Sur 35 Sur 1.5 968.2 1 93
2019-04-05 11:00:00 6.7 15 Sur 32 Sur 0.1 967.7 0.8 99
2019-04-05 10:00:00 5.2 11 Sur 24 Sur 0.3 967.2 0.5 100
2019-04-05 09:00:00 3.3 14 Sur 30 Sur 1.8 967.2 0.5 100
2019-04-05 08:00:00 3.5 17 Sur 26 Sur 0 966.9 -0.1 100
2019-04-05 07:00:00 4.1 13 Sur 22 Sur 0 966.7 -0.7 100
2019-04-05 06:00:00 4.5 13 Sur 21 Sur 0 966.7 -0.7 100
2019-04-05 05:00:00 4.4 8 Sur 15 Sur 1.7 967 -0.8 100
2019-04-05 04:00:00 5.1 8 Sur 32 Sudoeste 0.7 967.4 -0.1 96
2019-04-05 03:00:00 5.5 8 Sur 13 Sur 0.3 967.4 -0.1 100
2019-04-05 02:00:00 6.1 6 Oeste 18 Noroeste 0.3 967.8 0 88
2019-04-05 01:00:00 6 16 Oeste 26 Oeste 3.1 967.5 -0.1 100
2019-04-05 00:00:00 6.3 4 Sudoeste 9 Este 0.5 967.5 -0.3 100
2019-04-04 23:00:00 6.6 6 Nordeste 22 Oeste 2.5 967.8 -0.3 100
2019-04-04 22:00:00 6.6 8 Sudoeste 17 Sudoeste 1.8 967.6 -0.9 100
2019-04-04 21:00:00 6.7 3 Sudoeste 11 Este 3.8 967.8 -2.1 100
2019-04-04 20:00:00 6.6 4 Sudeste 33 Sur 6.9 968.1 -2.8 100
2019-04-04 19:00:00 7.3 21 Sur 35 Sur 1.9 968.5 -3.5 100
2019-04-04 18:00:00 7.2 21 Sur 45 Sur 1.4 969.9 -3.1 100
2019-04-04 17:00:00 7.5 25 Sur 39 Sur 1 970.9 -3 97
2019-04-04 16:00:00 7.8 23 Sur 35 Sur 0.6 972 -2.6 99
2019-04-04 15:00:00 7.2 23 Sur 33 Sur 0.1 973 -2.5 97
2019-04-04 14:00:00 8 22 Sur 37 Sur 0 973.9 -2.2 87
2019-04-04 13:00:00 9.4 17 Sur 32 Sur 0 974.6 -1.9 76
2019-04-04 12:00:00 7.3 14 Sur 28 Sur 0 975.5 -1.3 88
2019-04-04 11:00:00 4.5 13 Sur 21 Sur 0 976.1 -0.7 99
2019-04-04 10:00:00 4.3 14 Sur 22 Sur 0 976.5 -0.6 93
2019-04-04 09:00:00 3.8 14 Sur 22 Sur 0 976.8 -0.8 93
2019-04-04 08:00:00 3.6 15 Sudoeste 18 Sur 0.1 976.8 -1.3 96
2019-04-04 07:00:00 3.9 12 Sur 15 Sur 0 977.1 -1.7 93
2019-04-04 06:00:00 3.7 11 Sudoeste 15 Sudoeste 0 977.6 -2 89
2019-04-04 05:00:00 4.3 8 Sudoeste 11 Sur 0 978.1 -2.3 83
2019-04-04 04:00:00 4.5 7 Sudoeste 11 Sudoeste 0 978.8 -2.2 85
2019-04-04 03:00:00 3.6 4 Oeste 9 Noroeste 0 979.6 -1.7 87
2019-04-04 02:00:00 4.2 3 Noroeste 8 Noroeste 0 980.4 -1.2 82
2019-04-04 01:00:00 5 4 Noroeste 9 Oeste 0 981 -0.5 77
2019-04-04 00:00:00 6 4 Nordeste 15 Norte 0 981.3 0.3 72
2019-04-03 23:00:00 7 14 Norte 26 Norte 0 981.6 0.9 66
2019-04-03 22:00:00 7.3 11 Norte 24 Noroeste 0 981.5 0.8 68
2019-04-03 21:00:00 7.8 17 Norte 41 Norte 0 981 0.1 63
2019-04-03 20:00:00 9.3 25 Norte 46 Norte 0 980.7 -0.6 54
2019-04-03 19:00:00 10.9 19 Norte 33 Norte 0 980.7 -1.3 47
2019-04-03 18:00:00 11.3 18 Norte 33 Norte 0 980.9 -1.3 48
2019-04-03 17:00:00 11.5 13 Nordeste 39 Nordeste 0 981.3 -1.9 51
2019-04-03 16:00:00 9.6 24 Norte 52 Norte 0 982 -1.7 67
2019-04-03 15:00:00 11.8 21 Norte 41 Norte 0 982.2 -1.6 55
2019-04-03 14:00:00 8.8 17 Noroeste 32 Norte 0 983.2 -0.9 74
2019-04-03 13:00:00 9 18 Norte 41 Norte 0.2 983.7 -0.6 83
2019-04-03 12:00:00 9.3 14 Norte 30 Norte 0 983.8 -0.7 66
2019-04-03 11:00:00 9.5 17 Nordeste 30 Nordeste 0 984.1 -0.2 70
2019-04-03 10:00:00 7.9 7 Nordeste 11 Nordeste 0 984.3 -0.1 86
2019-04-03 09:00:00 5.6 3 Norte 8 Norte 0 984.5 -0.3 96
2019-04-03 08:00:00 5.8 3 Nordeste 11 Norte 0 984.3 -1 90
2019-04-03 07:00:00 6 9 Norte 13 Norte 0 984.4 -1.3 91
2019-04-03 06:00:00 6.6 5 Nordeste 18 Norte 0 984.8 -1.3 90
2019-04-03 05:00:00 7.4 11 Norte 21 Norte 0 985.3 -1.3 81
2019-04-03 04:00:00 7.1 8 Norte 28 Norte 0 985.7 -1.2 82
2019-04-03 03:00:00 7.3 18 Norte 28 Norte 0 986.1 -0.9 81
2019-04-03 02:00:00 7.5 17 Norte 28 Norte 0 986.6 -0.3 82
2019-04-03 01:00:00 7.7 9 Norte 26 Norte 0 986.9 0.5 82
2019-04-03 00:00:00 8.3 18 Norte 33 Norte 0 987 0.8 76
2019-04-02 23:00:00 9.3 19 Norte 42 Norte 0 986.9 0.9 72
2019-04-02 22:00:00 10.4 26 Norte 39 Norte 0 986.4 0.5 64
2019-04-02 21:00:00 11.7 23 Norte 39 Norte 0 986.2 0.1 62
2019-04-02 20:00:00 12.5 13 Noroeste 28 Oeste 0 986 -0.3 66
2019-04-02 19:00:00 14.4 20 Noroeste 39 Noroeste 0 985.9 -0.7 60
2019-04-02 18:00:00 15 21 Oeste 39 Noroeste 0 986.1 -1.1 60
2019-04-02 17:00:00 15.2 23 Oeste 32 Noroeste 0 986.3 -1.4 59
2019-04-02 16:00:00 15.7 9 Nordeste 22 Norte 0 986.6 -1.5 54
2019-04-02 15:00:00 15.5 13 Norte 28 Nordeste 0 987.2 -1 53
2019-04-02 14:00:00 15.8 13 Norte 24 Norte 0 987.7 -0.2 54
2019-04-02 13:00:00 14.9 12 Norte 22 Norte 1.9 988.1 0.7 57
2019-04-02 12:00:00 13.2 15 Norte -- -- -- 988.2 1 67
2019-04-02 11:00:00 11.6 12 Nordeste -- -- -- 987.9 1.1 74
2019-04-02 10:00:00 9.1 9 Norte 22 Nordeste 0 987.4 1 86
2019-04-02 09:00:00 7 13 Norte 22 Norte 0 987.2 1.1 99
2019-04-02 08:00:00 6.6 12 Norte 21 Norte 0 986.8 0.6 100
2019-04-02 07:00:00 7.5 9 Norte 13 Norte 0 986.4 -0.2 100
2019-04-02 06:00:00 8 0 Calma 8 Norte 0 986.1 -0.4 100
2019-04-02 05:00:00 9 8 Norte 13 Norte 0 986.2 -0.3 100
2019-04-02 04:00:00 9.2 9 Norte 17 Norte 0 986.6 -0.2 100
2019-04-02 03:00:00 9.8 5 Norte 9 Norte 0 986.5 0 96
2019-04-02 02:00:00 9.8 5 Oeste 9 Nordeste 0 986.5 0.5 93
2019-04-02 01:00:00 10.4 5 Noroeste 9 Norte 0 986.8 1.4 90
2019-04-02 00:00:00 11.1 6 Norte 11 Norte 0 986.5 1.6 91
2019-04-01 23:00:00 12.3 10 Norte 13 Norte 0 986 1.7 86
2019-04-01 22:00:00 12.9 11 Oeste 24 Oeste 0 985.4 1.5 83
2019-04-01 21:00:00 13.6 19 Oeste 28 Oeste 0 984.9 1.2 77
2019-04-01 20:00:00 14.8 17 Oeste 30 Oeste 0 984.3 1 69
2019-04-01 19:00:00 16.5 15 Oeste 32 Oeste 0 983.9 0.7 60
2019-04-01 18:00:00 17.2 19 Oeste 32 Oeste 0 983.7 0.6 64
2019-04-01 17:00:00 17.3 26 Oeste 37 Oeste 0 983.3 0.2 58
2019-04-01 16:00:00 17.8 26 Oeste 37 Oeste 0 983.2 -0.2 48
2019-04-01 15:00:00 18.9 23 Oeste 33 Oeste 0 983.1 -0.2 44
2019-04-01 14:00:00 19.8 5 Norte 13 Norte 0 983.1 0.2 42
2019-04-01 13:00:00 18.5 8 Sudoeste 15 Sur 0 983.4 0.9 40
2019-04-01 12:00:00 16.6 9 Sur 15 Sudoeste 0 983.3 1.3 55
2019-04-01 11:00:00 13.8 11 Sur 18 Sur 0 982.9 1.5 59
2019-04-01 10:00:00 12.4 13 Sur 18 Sur 0 982.5 1.5 62
2019-04-01 09:00:00 10.1 12 Sudoeste 17 Sur 0 982 1.4 68
2019-04-01 08:00:00 9.9 11 Sudoeste 17 Sudoeste 0 981.4 0.6 69
2019-04-01 07:00:00 10.6 15 Sudoeste 22 Sudoeste 0 981 0.2 66
2019-04-01 06:00:00 11.3 10 Sudoeste 13 Sudoeste 0 980.6 -0.3 62
2019-04-01 05:00:00 11.2 5 Oeste 13 Oeste 0 980.8 -0.1 62
2019-04-01 04:00:00 12.4 10 Sudoeste 15 Oeste 0 980.8 -0.3 58
2019-04-01 03:00:00 13.1 10 Sudoeste 15 Sudoeste 0 980.9 -0.2 54
2019-04-01 02:00:00 13.4 9 Oeste 21 Sur 0 980.9 -0.4 52
2019-04-01 01:00:00 13.9 12 Sur 17 Sudoeste 0 981.1 0.1 50
2019-04-01 00:00:00 14.2 6 Sudoeste 13 Norte 0 981.1 0.6 49
2019-03-31 23:00:00 15.8 10 Norte 24 Norte 0 981.3 0.9 43
2019-03-31 22:00:00 15.8 14 Nordeste 24 Norte 0 981 0.6 45
2019-03-31 21:00:00 16.3 14 Norte 24 Norte 0 980.5 -0.4 43
2019-03-31 20:00:00 17.3 12 Norte 15 Norte 0 980.4 -0.7 45
2019-03-31 19:00:00 18.2 10 Norte 17 Norte 0 980.4 -0.7 42
2019-03-31 18:00:00 19.6 12 Noroeste 22 Oeste 0 980.9 -0.6 39
2019-03-31 17:00:00 19.3 13 Oeste 22 Sudoeste 0 981.1 -0.9 39
2019-03-31 16:00:00 21 9 Sudeste 37 Este 0 981.1 -1.5 29
2019-03-31 15:00:00 21.8 9 Sur 17 Sur 0 981.5 -1.2 32
2019-03-31 14:00:00 20.5 4 Sur 13 Sudoeste 0 982 -0.6 40
2019-03-31 13:00:00 18 7 Sudoeste 15 Sudeste 0 982.6 0.2 47
2019-03-31 12:00:00 15.7 8 Sudoeste 13 Sur 0 982.7 0.4 51
2019-03-31 11:00:00 13.3 8 Sur 15 Sur 0 982.6 0.4 57
2019-03-31 10:00:00 11.3 10 Sur 15 Sur 0 982.4 0 59
2019-03-31 09:00:00 9.7 8 Sudoeste 13 Sudoeste 0 982.3 -0.6 61
2019-03-31 08:00:00 10 3 Sudoeste 9 Sudoeste 0 982.2 -1.3 59
2019-03-31 07:00:00 11.3 3 Este 9 Norte 0 982.4 -1.8 51
2019-03-31 06:00:00 10.6 2 Nordeste 9 Norte 0 982.9 -1.9 57
2019-03-31 05:00:00 12 10 Norte 15 Norte 0 983.5 -1.9 48
2019-03-31 03:00:00 12.5 8 Norte 9 Norte 0 984.8 -1.2 52
2019-03-31 01:00:00 12.9 9 Norte 17 Norte 0 985.4 -0.7 51
2019-03-31 00:00:00 11.7 4 Nordeste 15 Norte 0 985.8 -0.1 65
2019-03-30 23:00:00 12.3 9 Norte 13 Norte 0 986 0.4 62
2019-03-30 22:00:00 13.4 8 Norte 11 Norte 0 986.1 0.5 52
2019-03-30 21:00:00 13.1 8 Noroeste 13 Noroeste 0 985.9 0.3 46
2019-03-30 20:00:00 14.4 8 Noroeste 22 Oeste 0 985.6 -0.1 50
2019-03-30 19:00:00 16.9 10 Oeste 15 Oeste 0 985.6 -0.4 45
2019-03-30 18:00:00 18 7 Oeste 24 Oeste 0 985.6 -0.7 47
2019-03-30 17:00:00 17.7 16 Oeste 30 Oeste 0 985.7 -1 42
2019-03-30 16:00:00 18.5 23 Oeste 35 Oeste 0 986 -1.2 36
2019-03-30 15:00:00 19.7 19 Oeste 28 Oeste 0 986.3 -1.5 25
2019-03-30 14:00:00 19.9 13 Oeste 22 Oeste 0 986.7 -1.4 24
2019-03-30 13:00:00 19.8 7 Sudoeste 28 Oeste 0 987.2 -0.9 33
2019-03-30 12:00:00 18.6 6 Sur 13 Sur 0 987.8 -0.4 37
2019-03-30 11:00:00 15.4 8 Sudoeste 11 Sur 0 988.1 0.2 44
2019-03-30 10:00:00 12.5 8 Sudoeste 13 Sur 0 988.1 0.3 54
2019-03-30 09:00:00 10.5 8 Sudoeste 11 Sudoeste 0 988.2 0.5 56
2019-03-30 08:00:00 8.6 6 Sudoeste 13 Sudoeste 0 987.9 0.1 59
2019-03-30 07:00:00 8.4 8 Sudoeste 15 Sudoeste 0 987.8 -0.2 59
2019-03-30 06:00:00 9.2 8 Sudoeste 13 Sudoeste 0 987.7 -0.6 56
2019-03-30 05:00:00 9.5 9 Sudoeste 17 Sudoeste 0 987.8 -0.9 55
2019-03-30 04:00:00 10.5 12 Sudoeste 17 Sudoeste 0 988 -0.9 50
2019-03-30 03:00:00 10.9 10 Oeste 13 Sudoeste 0 988.3 -0.8 48
2019-03-30 02:00:00 11.6 10 Sudoeste 13 Sudoeste 0 988.7 -0.7 45
2019-03-30 01:00:00 10.6 4 Oeste 8 Oeste 0 988.9 -0.5 49
2019-03-30 00:00:00 10.9 2 Oeste 13 Oeste 0 989.1 -0.1 44
2019-03-29 23:00:00 11.8 0 Calma 8 Norte 0 989.4 0.3 41
2019-03-29 22:00:00 12.4 5 Norte 15 Oeste 0 989.4 0.2 39
2019-03-29 21:00:00 11.7 5 Oeste 11 Sudoeste 0 989.2 0.4 43
2019-03-29 20:00:00 14.1 0 Calma 18 Oeste 0 989.1 0.1 38
2019-03-29 19:00:00 16.6 6 Noroeste 18 Noroeste 0 989.2 0 31
2019-03-29 18:00:00 17.3 13 Oeste 33 Oeste 0 988.8 -0.9 29
2019-03-29 17:00:00 18.4 21 Oeste 35 Oeste 0 989 -1.1 33
2019-03-29 16:00:00 19.1 25 Oeste 41 Oeste 0 989.2 -- 31
2019-03-29 15:00:00 19.4 22 Oeste 33 Sudoeste 0 989.7 -- 34
2019-03-29 14:00:00 20.5 14 Oeste -- -- -- 990.1 -- 33
2019-03-29 13:00:00 20.3 -- -- -- -- -- -- -- 36
2019-03-29 12:00:00 -- -- -- -- -- -- -- -- --
2019-03-29 11:00:00 15.3 12 Sur -- -- -- -- -- 55
2019-03-29 10:00:00 12.5 12 Sudoeste 17 Sudoeste 0 990.9 0.1 60
2019-03-29 09:00:00 10.8 11 Sudoeste 15 Sudoeste 0 990.9 0.1 63
2019-03-29 08:00:00 9.1 10 Sudoeste 21 Sudoeste 0 990.9 0 69
2019-03-29 07:00:00 9.4 12 Sudoeste 18 Sudoeste 0 990.8 -0.5 67
2019-03-29 06:00:00 10.2 13 Sudoeste 17 Sudoeste 0 990.8 -0.7 63
2019-03-29 05:00:00 11.5 11 Sudoeste 17 Sudoeste 0 990.9 -0.9 58
2019-03-29 04:00:00 11.9 10 Oeste 17 Oeste 0 991.3 -0.8 56
2019-03-29 03:00:00 12.5 13 Sudoeste 18 Sudoeste 0 991.5 -0.6 49
2019-03-29 02:00:00 12.4 13 Sudoeste 24 Sur 0 991.8 -0.5 44
2019-03-29 01:00:00 12.4 20 Sur 26 Sur 0 992.1 -0.2 46
2019-03-29 00:00:00 12 3 Noroeste 15 Oeste 0 992.1 0.1 47
2019-03-28 23:00:00 12 5 Oeste 15 Oeste 0 992.3 0.7 48
2019-03-28 22:00:00 12.9 6 Noroeste 13 Oeste 0 992.3 0.7 45
2019-03-28 21:00:00 13.9 13 Oeste 18 Sudoeste 0 992 0.7 45
2019-03-28 20:00:00 15.4 3 Sur 26 Oeste 0 991.6 -0.2 45
2019-03-28 19:00:00 17.4 21 Oeste 33 Oeste 0 991.6 -0.7 38
2019-03-28 18:00:00 19.7 21 Oeste 42 Oeste 0 991.3 -1.5 35
2019-03-28 17:00:00 21.7 17 Oeste 33 Oeste 0 991.8 -1.9 27
2019-03-28 16:00:00 22.2 16 Oeste 28 Oeste 0 992.3 -2.1 27
2019-03-28 15:00:00 23.4 8 Sudoeste 13 Sudoeste 0 992.8 -2.2 25
2019-03-28 14:00:00 22.4 3 Oeste 18 Oeste 0 993.7 -1.8 24
2019-03-28 13:00:00 20.8 4 Este 13 Nordeste 0 994.4 -0.9 29
2019-03-28 12:00:00 18.3 7 Sudoeste 13 Sur 0 995 -0.2 42
2019-03-28 11:00:00 15.8 7 Sur 13 Este 0 995.5 0.4 51
2019-03-28 10:00:00 13.1 5 Este 18 Sudoeste 0 995.3 0.8 60
2019-03-28 09:00:00 9.4 14 Sudoeste 18 Sudoeste 0 995.2 0.9 67
2019-03-28 08:00:00 8.2 7 Sudoeste 21 Sudoeste 0 995.1 1.3 69
2019-03-28 07:00:00 8.6 17 Sudoeste 26 Sudoeste 0 994.5 0.9 70
2019-03-28 06:00:00 9.2 14 Sudoeste 22 Sudoeste 0 994.3 0.7 68
2019-03-28 05:00:00 9.3 13 Sudoeste 22 Sudoeste 0 993.8 0.2 68
2019-03-28 04:00:00 9.7 12 Sudoeste 18 Sudoeste 0 993.6 -0.1 65
2019-03-28 03:00:00 10.8 10 Sudoeste 17 Sudoeste 0 993.6 0.1 60
2019-03-28 02:00:00 11.6 5 Sudoeste 30 Sur 0 993.6 0.4 56
2019-03-28 01:00:00 12.7 18 Sur 28 Sur 0 993.7 0.9 50
2019-03-28 00:00:00 12.5 4 Sur 9 Sur 0 993.5 0.9 43
2019-03-27 23:00:00 13.3 0 Calma 11 Norte 0 993.2 1 40
2019-03-27 22:00:00 15.1 9 Norte 13 Norte 0 992.8 0.9 30
2019-03-27 21:00:00 13.5 8 Noroeste 18 Oeste 0 992.6 1.1 35
2019-03-27 20:00:00 16.3 12 Oeste 24 Oeste 0 992.2 0.7 29
2019-03-27 19:00:00 19.2 16 Oeste 28 Oeste 0 991.9 0.1 22
2019-03-27 18:00:00 20.6 23 Oeste 37 Oeste 0 991.5 -0.6 16
2019-03-27 17:00:00 22.4 19 Oeste 32 Oeste 0 991.5 -0.9 19
2019-03-27 16:00:00 23.1 17 Oeste 32 Sudoeste 0 991.8 -0.9 17
2019-03-27 15:00:00 23.3 5 Norte 18 Nordeste 0 992.1 -0.7 14
2019-03-27 14:00:00 23.3 6 Este 26 Este 0 992.4 -- 14
2019-03-27 13:00:00 22.1 13 Este 26 Este 0 992.7 0.6 15
2019-03-27 12:00:00 21.3 6 Este -- -- -- 992.8 1.1 21
2019-03-27 11:00:00 -- -- -- -- -- -- -- -- --
2019-03-27 10:00:00 17.4 13 Sudeste 35 Sudeste 0 992.1 1.5 13
2019-03-27 09:00:00 16.1 11 Sudeste 24 Sudeste 0 991.7 1.6 15
2019-03-27 08:00:00 14.3 8 Oeste 21 Sur 0 991.3 1.7 9
2019-03-27 07:00:00 11.9 6 Nordeste 15 Noroeste 0 990.6 1.1 18
2019-03-27 06:00:00 13.2 7 Nordeste 21 Noroeste 0 990.1 0.7 15
2019-03-27 05:00:00 15.5 6 Nordeste 32 Oeste 0 989.6 0.5 10
2019-03-27 04:00:00 15.8 4 Noroeste 26 Oeste 0 989.5 0.3 10
2019-03-27 03:00:00 14.4 11 Noroeste -- -- -- 989.4 0.5 20
2019-03-27 02:00:00 15.3 19 Este 37 Este 0 989.1 0.5 18
2019-03-27 01:00:00 16.1 7 Nordeste 24 Norte 0 989.2 1.3 21
2019-03-27 00:00:00 16.2 14 Noroeste 33 Nordeste 0 988.9 1.9 25
2019-03-26 23:00:00 16.7 5 Nordeste 21 Norte 0 988.6 2.5 29
2019-03-26 22:00:00 16.7 12 Norte 17 Norte 0 987.9 2.4 32
2019-03-26 21:00:00 17.6 9 Norte 22 Norte 0 987 1.8 35
2019-03-26 20:00:00 19.1 12 Norte 30 Este 0 986.1 0.6 31
2019-03-26 19:00:00 22.6 15 Este -- -- -- 985.5 -0.4 14
2019-03-26 18:00:00 23 18 Este -- -- -- 985.2 -1.3 17
2019-03-26 17:00:00 23.2 15 Este 37 Nordeste 0 985.5 -1.4 17
2019-03-26 16:00:00 22.9 12 Este -- -- -- 985.9 -1.5 18
2019-03-26 15:00:00 22 22 Este 41 Nordeste 0 986.5 -1.4 19
2019-03-26 14:00:00 21.1 22 Este 48 Este 0 986.9 -1.1 17
2019-03-26 13:00:00 20.4 12 Este 42 Este 0 987.4 -0.7 22
2019-03-26 12:00:00 18.3 26 Este 52 Este 0 987.9 -0.4 22
2019-03-26 11:00:00 16.7 17 Este 42 Este 0 988 -0.2 27
2019-03-26 10:00:00 14.8 12 Nordeste 32 Nordeste 0 988.1 0 37
2019-03-26 09:00:00 12.6 11 Norte 24 Norte 0 988.3 0.3 35
2019-03-26 08:00:00 11.4 6 Nordeste 26 Sudeste 0 988.2 0.1 36
2019-03-26 07:00:00 10.7 7 Nordeste 17 Nordeste 0 988.1 -0.3 42
2019-03-26 06:00:00 10.6 6 Este 21 Norte 0 988 -1 50
2019-03-26 05:00:00 11.8 8 Sudoeste 26 Nordeste 0 988.1 -1.3 47
2019-03-26 04:00:00 12.4 7 Sur 26 Norte 0 988.4 -0.9 46
2019-03-26 03:00:00 14.1 12 Oeste 24 Oeste 0 989 0 39
2019-03-26 02:00:00 14.8 12 Noroeste 21 Noroeste 0 989.4 0.7 40
2019-03-26 01:00:00 15.3 9 Este 28 Sudeste 0 989.3 1.1 44
2019-03-26 00:00:00 13.7 5 Este 22 Este 0 989 0.9 59
2019-03-25 23:00:00 13.6 4 Oeste 30 Este 0 988.7 0.8 61
2019-03-25 22:00:00 16.7 20 Este 41 Este 0 988.2 0.5 47
2019-03-25 21:00:00 15.2 14 Norte 33 Norte 0 988.1 0.4 57
2019-03-25 20:00:00 17.5 23 Norte 35 Norte 0 987.9 -0.3 50
2019-03-25 19:00:00 19.9 22 Norte 33 Norte 0 987.7 -1.1 43
2019-03-25 18:00:00 21.7 23 Norte 35 Norte 0 987.7 -2 37
2019-03-25 17:00:00 22.9 14 Norte 32 Norte 0 988.2 -2.5 36
2019-03-25 16:00:00 23.1 14 Norte 22 Norte 0 988.8 -2.6 35
2019-03-25 15:00:00 22.8 8 Nordeste 17 Nordeste 0 989.7 -2.2 33
2019-03-25 14:00:00 21.7 3 Noroeste 17 Oeste 0 990.7 -1.4 39
2019-03-25 13:00:00 20.1 3 Sur 17 Sur 0 991.4 -0.5 47
2019-03-25 12:00:00 17.5 9 Sur 15 Sur 0 991.9 0.3 54
2019-03-25 11:00:00 14.5 9 Sur 21 Sur 0 992.1 0.7 60
2019-03-25 10:00:00 11.7 12 Sur 22 Sur 0 991.9 0.8 67
2019-03-25 09:00:00 9.9 15 Sur 28 Sur 0 991.6 0.6 72
2019-03-25 08:00:00 8.7 15 Sur 24 Sur 0 991.4 0.6 76
2019-03-25 07:00:00 9.2 12 Sur 26 Sur 0 991.1 0.1 73
2019-03-25 06:00:00 9.8 11 Sur 26 Sur 0 991 -0.3 72
2019-03-25 05:00:00 10.2 12 Sudoeste 32 Sur 0 990.8 -0.6 71
2019-03-25 04:00:00 11.3 26 Sur 35 Sur 0 991 -0.7 67
2019-03-25 03:00:00 11.7 8 Sur 22 Sur 0 991.3 -0.4 67
2019-03-25 02:00:00 12.7 10 Sur 17 Sur 0 991.4 -0.5 65
2019-03-25 01:00:00 12.3 6 Sur 9 Sudoeste 0 991.7 0.1 64
2019-03-25 00:00:00 13.5 5 Nordeste 13 Nordeste 0 991.7 0.7 60
2019-03-24 23:00:00 14.8 6 Nordeste 24 Norte 0 991.9 1.4 55
2019-03-24 22:00:00 17.3 18 Norte 30 Norte 0 991.6 1.5 45
2019-03-24 21:00:00 18.4 9 Nordeste 35 Norte 0 991 1.1 43
2019-03-24 20:00:00 19.1 13 Norte 21 Norte 0 990.5 0.2 44
2019-03-24 19:00:00 22 9 Norte 22 Oeste 0 990.1 -0.5 33
2019-03-24 18:00:00 23.2 13 Noroeste 45 Oeste 0 989.9 -1.4 33
2019-03-24 17:00:00 23.2 12 Oeste 28 Oeste 0 990.3 -1.7 38
2019-03-24 16:00:00 23.9 12 Noroeste 22 Oeste 0 990.6 -1.9 31
2019-03-24 15:00:00 23.2 12 Oeste 21 Noroeste 0 991.3 -1.7 33
2019-03-24 14:00:00 24 4 Norte 15 Norte 0 992 -1.3 28
2019-03-24 13:00:00 22.9 6 Este 13 Este 0 992.5 -0.4 34
2019-03-24 12:00:00 19.1 10 Sudoeste 13 Sur 0 993 0.4 46
2019-03-24 11:00:00 16.6 7 Sur 13 Sur 0 993.3 1.1 49
2019-03-24 10:00:00 13.7 10 Sudoeste 17 Sudoeste 0 992.9 0.9 58
2019-03-24 09:00:00 11.3 12 Sudoeste 22 Sudoeste 0 992.6 0.7 62
2019-03-24 08:00:00 9.5 16 Sudoeste 22 Sur 0 992.2 0.4 68
2019-03-24 07:00:00 10.3 9 Sudoeste 17 Sudoeste 0 992 0.3 64
2019-03-24 06:00:00 10.9 9 Sudoeste 15 Sudoeste 0 991.9 0.2 61
2019-03-24 05:00:00 10.5 10 Sudoeste 15 Sudoeste 0 991.8 0 63
2019-03-24 04:00:00 10.1 0 Calma 8 Este 0 991.7 -0.5 66
2019-03-24 03:00:00 11 0 Calma 8 Este 0 991.7 -0.8 62
2019-03-24 02:00:00 12.2 5 Nordeste 8 Nordeste 0 991.8 -1 57
2019-03-24 01:00:00 12.4 0 Calma 11 Norte 0 992.2 -0.7 57
2019-03-24 00:00:00 13.8 10 Norte 17 Norte 0 992.5 -0.2 51
2019-03-23 23:00:00 13.3 12 Norte 15 Norte 0 992.8 0.6 54
2019-03-23 22:00:00 13.7 11 Norte 13 Norte 0 992.9 0.9 54
2019-03-23 21:00:00 15.2 4 Norte 15 Oeste 0 992.7 1.1 40
2019-03-23 20:00:00 15.4 4 Oeste 22 Oeste 0 992.2 0.6 52
2019-03-23 19:00:00 18.1 17 Oeste 24 Oeste 0 992 0.1 32
2019-03-23 18:00:00 19.6 14 Oeste 30 Oeste 0 991.6 -0.7 33
2019-03-23 17:00:00 20.1 20 Oeste 32 Sudoeste 0 991.6 -1.4 31
2019-03-23 16:00:00 20.7 19 Oeste 30 Oeste 0 991.9 -1.8 33
2019-03-23 15:00:00 21.2 17 Oeste 26 Sudoeste 0 992.3 -1.7 31
2019-03-23 14:00:00 21 11 Sur 18 Sudoeste 0 993 -1.2 28
2019-03-23 13:00:00 19.9 9 Sur 15 Sur 0 993.7 -0.7 34
2019-03-23 12:00:00 16.9 8 Sur 13 Sur 0 994 -0.3 52
2019-03-23 11:00:00 13.9 10 Sudoeste 17 Sur 0 994.2 0 59
2019-03-23 10:00:00 11.1 10 Sudoeste 18 Sur 0 994.4 0.3 65
2019-03-23 09:00:00 9.2 14 Sudoeste 22 Sur 0 994.3 0.3 71
2019-03-23 08:00:00 7.5 11 Sudoeste 22 Sur 0 994.2 0.1 76
2019-03-23 07:00:00 8.1 10 Sudoeste 17 Sur 0 994.1 -0.3 70
2019-03-23 06:00:00 9.4 11 Oeste -- -- -- 994 -1 64
2019-03-23 05:00:00 9.2 15 Sudoeste 18 Sudoeste 0 994.1 -1.2 63
2019-03-23 04:00:00 9.4 9 Sudoeste 13 Sudoeste 0 994.4 -1 65
2019-03-23 03:00:00 10.8 4 Este 18 Norte 0 995 -0.7 60
2019-03-23 02:00:00 11.8 13 Norte 17 Norte 0 995.3 -0.6 59
2019-03-23 01:00:00 11.5 13 Norte 17 Norte 0 995.4 -0.4 57
2019-03-23 00:00:00 10.9 9 Norte 13 Norte 0 995.7 0.2 57
2019-03-22 23:00:00 10.6 5 Noroeste 15 Noroeste 0 995.9 0.9 54
2019-03-22 22:00:00 10.8 7 Noroeste 21 Oeste 0 995.8 1.1 52
2019-03-22 21:00:00 12.3 13 Oeste 33 Oeste 0 995.5 1.3 54
2019-03-22 20:00:00 13.6 13 Oeste 18 Oeste 0 995 0.7 49
2019-03-22 19:00:00 15.8 14 Oeste 26 Oeste 0 994.7 0.1 40
2019-03-22 18:00:00 17.2 16 Oeste 30 Oeste 0 994.2 -0.8 37
2019-03-22 17:00:00 17.9 19 Oeste 39 Oeste 0 994.3 -1.2 33
2019-03-22 16:00:00 18.6 17 Oeste 28 Sudoeste 0 994.6 -1.4 34
2019-03-22 15:00:00 18.6 16 Oeste 24 Oeste 0 995 -1.3 34
2019-03-22 14:00:00 19 9 Norte 22 Noroeste 0 995.5 -0.8 36
2019-03-22 13:00:00 18.1 6 Sur 13 Sur 0 996 0 40
2019-03-22 12:00:00 16.6 4 Sur 13 Sudoeste 0 996.3 0.7 49
2019-03-22 11:00:00 13.9 9 Sudoeste 11 Sur 0 996.3 1.1 57
2019-03-22 10:00:00 12.7 4 Sur 11 Sur 0 996 1.3 61
2019-03-22 09:00:00 9.7 4 Sudoeste 15 Sudoeste 0 995.6 1.2 66
2019-03-22 08:00:00 7.5 10 Sudoeste 13 Oeste 0 995.2 1 72
2019-03-22 07:00:00 7.3 9 Sudoeste 17 Sudoeste 0 994.7 0.4 72
2019-03-22 06:00:00 7.7 15 Sudoeste 18 Sur 0 994.4 -0.2 69
2019-03-22 05:00:00 8.7 10 Sudoeste 18 Sudoeste 0 994.2 -0.4 63
2019-03-22 04:00:00 8.4 11 Sudoeste 17 Sudoeste 0 994.3 -0.6 65
2019-03-22 03:00:00 9.2 10 Sudoeste 15 Oeste 0 994.6 -0.3 61
2019-03-22 02:00:00 8.3 8 Sudoeste 11 Sudoeste 0 994.6 -0.3 64
2019-03-22 01:00:00 8.4 0 Calma 8 Nordeste 0 994.9 0 64
2019-03-22 00:00:00 8.7 6 Noroeste -- -- 0 994.9 0.4 65
2019-03-21 23:00:00 9 4 Oeste 8 Norte 0 994.9 0.7 60
2019-03-21 22:00:00 9.1 5 Noroeste 15 Oeste 0 994.9 0.9 66
2019-03-21 21:00:00 10.3 0 Calma 15 Oeste 0 994.5 0.8 72
2019-03-21 20:00:00 11.5 8 Sudoeste 30 Sudoeste 0 994.2 0.5 66
2019-03-21 19:00:00 13.6 24 Oeste 33 Oeste 0 994 -0.1 50
2019-03-21 18:00:00 16.1 21 Oeste 30 Oeste 0 993.7 -1.1 37
2019-03-21 17:00:00 17 18 Oeste 30 Oeste 0 993.7 -1.9 38
2019-03-21 16:00:00 18.1 13 Oeste 26 Oeste 0 994.1 -2.2 41
2019-03-21 15:00:00 18.1 10 Oeste 21 Oeste 0 994.8 -1.9 41
2019-03-21 14:00:00 17.7 6 Norte 17 Nordeste 0 995.6 -1.2 42
2019-03-21 13:00:00 17.8 9 Este 18 Nordeste 0 996.3 -0.2 44
2019-03-21 12:00:00 14.8 7 Sur 15 Sur 0 996.7 0.2 51
2019-03-21 11:00:00 12.6 9 Sur 15 Sur 0 996.8 0.6 62
2019-03-21 10:00:00 10.4 9 Sur 15 Sur 0 996.5 0.8 73
2019-03-21 09:00:00 8.8 2 Sur 13 Oeste 0 996.5 0.7 83
2019-03-21 08:00:00 7.2 9 Sudoeste 18 Sudoeste 0 996.2 0.8 92
2019-03-21 07:00:00 7.3 8 Sudoeste 13 Sudoeste 0 995.7 0.2 93
2019-03-21 06:00:00 7.7 9 Sudoeste 15 Sudoeste 0 995.8 0 91
2019-03-21 05:00:00 7.9 9 Sur 17 Sur 0 995.4 -0.5 90
2019-03-21 04:00:00 8.4 9 Sudoeste 15 Sur 0 995.5 -0.3 88
2019-03-21 03:00:00 9.1 8 Sudoeste 13 Sudoeste 0 995.8 -0.1 84
2019-03-21 02:00:00 9.8 6 Sur 13 Sudoeste 0 995.9 0.1 80
2019-03-21 01:00:00 9.9 0 Calma 8 Sudoeste 0 995.8 0 81
2019-03-21 00:00:00 9.6 0 Calma 9 Norte 0 995.9 0.1 83
2019-03-20 23:00:00 10.6 5 Norte 13 Norte 0 995.8 0.2 80
2019-03-20 22:00:00 10.8 9 Norte 13 Norte 0 995.8 0.1 78
2019-03-20 21:00:00 11.1 7 Noroeste 17 Oeste 0 995.8 0.4 72
2019-03-20 20:00:00 12 13 Oeste 26 Oeste 0 995.6 0.1 66
2019-03-20 19:00:00 13.6 18 Oeste 30 Oeste 0 995.7 -0.4 67
2019-03-20 18:00:00 15 22 Oeste 41 Oeste 0 995.4 -1.2 62
2019-03-20 17:00:00 16.8 15 Oeste 30 Noroeste 0 995.5 -1.6 50
2019-03-20 16:00:00 16.4 21 Oeste 32 Oeste 0 996.1 -1.6 49
2019-03-20 15:00:00 16.8 21 Oeste 28 Sudoeste 0 996.6 -1.6 50
2019-03-20 14:00:00 16.8 12 Oeste 26 Sudoeste 0 997.1 -1.4 49
2019-03-20 13:00:00 16.9 5 Este 15 Este 0 997.7 -0.6 48
2019-03-20 12:00:00 15.8 7 Este 15 Este 0 998.2 0.1 56
2019-03-20 11:00:00 13 7 Este 13 Este 0 998.5 0.8 66
2019-03-20 10:00:00 9.5 3 Sur 15 Sur 0 998.3 1.4 77
2019-03-20 09:00:00 7.6 7 Sur 17 Sur 0 998.1 1.5 83
2019-03-20 08:00:00 5.8 10 Sur 15 Sur 0 997.7 1.3 92
2019-03-20 07:00:00 6.3 10 Sur 18 Sur 0 996.9 0.3 90
2019-03-20 06:00:00 6.6 14 Sur 28 Sudoeste 0 996.6 -0.5 88
2019-03-20 05:00:00 6.8 21 Sur 28 Sur 0 996.4 -0.7 87
2019-03-20 04:00:00 7.2 14 Sur 22 Sur 0 996.6 -0.7 85
2019-03-20 03:00:00 7.6 0 Calma 13 Sur 0 997.1 -0.3 81
2019-03-20 02:00:00 7.5 4 Sudoeste 9 Este 0 997.1 -0.2 81
2019-03-20 01:00:00 8.4 3 Sudeste 13 Norte 0 997.3 0.2 77
2019-03-20 00:00:00 9 0 Calma 17 Norte 0 997.4 0.9 73
2019-03-19 23:00:00 9.9 17 Norte 30 Norte 0 997.3 0.9 69
2019-03-19 22:00:00 10.6 17 Nordeste 37 Norte 0 997.1 1.3 66
2019-03-19 21:00:00 11.6 23 Norte 37 Nordeste 0 996.5 1 62
2019-03-19 20:00:00 12.8 21 Norte 35 Norte 0 996.4 0.9 59
2019-03-19 19:00:00 14.1 21 Norte 39 Norte 0 995.8 0 56
2019-03-19 18:00:00 15.4 25 Norte 41 Norte 0 995.5 -0.7 53
2019-03-19 17:00:00 16.2 27 Norte 42 Norte 0 995.5 -1.5 48
2019-03-19 16:00:00 16.3 26 Norte 37 Norte 0 995.8 -1.9 49
2019-03-19 15:00:00 16.5 19 Norte 33 Norte 0 996.2 -1.8 49
2019-03-19 14:00:00 16.8 13 Nordeste 30 Nordeste 0 997 -1.1 46
2019-03-19 13:00:00 15.6 19 Nordeste 33 Nordeste 0 997.7 -0.3 49
2019-03-19 12:00:00 14.4 15 Nordeste 28 Este 0 998 0.3 53
2019-03-19 11:00:00 12.7 14 Nordeste 26 Nordeste 0 998.1 0.9 59
2019-03-19 10:00:00 10.6 11 Nordeste 22 Nordeste 0 998 1.4 67
2019-03-19 09:00:00 7.6 6 Nordeste 18 Nordeste 0 997.7 1.2 79
2019-03-19 08:00:00 5.2 7 Nordeste 15 Norte 0 997.2 0.6 87
2019-03-19 07:00:00 6.1 11 Norte 18 Nordeste 0 996.6 -0.1 78
2019-03-19 06:00:00 5.8 9 Nordeste 22 Norte 0 996.5 -0.4 79
2019-03-19 05:00:00 6.5 12 Nordeste 26 Norte 0 996.6 -0.5 77
2019-03-19 04:00:00 7 12 Norte 30 Norte 0 996.7 -0.9 71
2019-03-19 03:00:00 7.8 16 Norte 33 Nordeste 0 996.9 -0.9 64
2019-03-19 02:00:00 7.8 23 Norte 37 Norte 0 997.1 -0.8 65
2019-03-19 01:00:00 7.7 23 Nordeste 42 Norte 0 997.6 0 66
2019-03-19 00:00:00 8.3 29 Norte 42 Norte 0 997.8 0.4 63